createdAt,value
2023-01-22T00:01:16.623Z,19.40
2023-01-22T00:03:46.758Z,19.87
2023-01-22T00:06:15.432Z,20.50
2023-01-22T00:08:44.408Z,20.57
2023-01-22T00:11:13.100Z,19.23
2023-01-22T00:13:41.864Z,20.13
2023-01-22T00:16:13.054Z,20.03
2023-01-22T00:18:41.559Z,20.90
2023-01-22T00:21:09.579Z,20.13
2023-01-22T00:23:38.571Z,20.53
2023-01-22T00:26:10.990Z,20.43
2023-01-22T00:28:39.303Z,18.70
2023-01-22T00:31:07.725Z,20.63
2023-01-22T00:33:37.149Z,19.07
2023-01-22T00:36:06.698Z,20.43
2023-01-22T00:38:34.858Z,20.30
2023-01-22T00:41:03.230Z,19.63
2023-01-22T00:43:31.902Z,18.37
2023-01-22T00:46:00.116Z,20.73
2023-01-22T00:48:28.552Z,18.43
2023-01-22T00:50:57.990Z,18.87
2023-01-22T00:53:26.289Z,19.53
2023-01-22T00:55:55.309Z,20.70
2023-01-22T00:58:23.604Z,16.93
2023-01-22T01:00:52.099Z,21.50
2023-01-22T01:03:30.868Z,19.13
2023-01-22T01:06:02.931Z,20.00
2023-01-22T01:08:32.556Z,18.03
2023-01-22T01:11:04.066Z,20.30
2023-01-22T01:13:34.188Z,20.63
2023-01-22T01:16:03.784Z,19.83
2023-01-22T01:18:32.937Z,20.80
2023-01-22T01:21:04.133Z,19.97
2023-01-22T01:23:32.664Z,20.97
2023-01-22T01:26:01.794Z,21.40
2023-01-22T01:28:29.737Z,22.37
2023-01-22T01:31:02.514Z,23.27
2023-01-22T01:33:30.674Z,20.03
2023-01-22T01:36:05.561Z,18.97
2023-01-22T01:38:34.819Z,19.13
2023-01-22T01:41:03.623Z,19.03
2023-01-22T01:43:31.785Z,19.97
2023-01-22T01:46:01.808Z,19.93
2023-01-22T01:48:35.202Z,19.73
2023-01-22T01:51:09.947Z,21.27
2023-01-22T01:53:38.681Z,20.07
2023-01-22T01:56:11.216Z,20.53
2023-01-22T01:58:40.680Z,18.87
2023-01-22T02:01:12.566Z,20.47
2023-01-22T02:03:41.823Z,21.30
2023-01-22T02:06:13.408Z,19.23
2023-01-22T02:08:43.416Z,19.27
2023-01-22T02:11:11.983Z,20.83
2023-01-22T02:13:44.911Z,19.83
2023-01-22T02:16:12.943Z,21.63
2023-01-22T02:18:41.081Z,21.27
2023-01-22T02:21:33.547Z,20.40
2023-01-22T02:24:01.594Z,21.13
2023-01-22T02:26:29.893Z,19.60
2023-01-22T02:28:58.112Z,19.43
2023-01-22T02:31:29.658Z,19.83
2023-01-22T02:33:58.479Z,18.70
2023-01-22T02:36:29.589Z,19.37
2023-01-22T02:38:59.058Z,18.43
2023-01-22T02:41:28.240Z,18.57
2023-01-22T02:43:56.419Z,17.43
2023-01-22T02:46:25.992Z,18.73
2023-01-22T02:48:54.347Z,17.17
2023-01-22T02:51:23.042Z,18.33
2023-01-22T02:53:51.454Z,17.90
2023-01-22T02:56:21.717Z,18.23
2023-01-22T02:58:49.778Z,17.57
2023-01-22T03:01:21.374Z,17.60
2023-01-22T03:03:53.912Z,17.70
2023-01-22T03:06:23.906Z,16.57
2023-01-22T03:08:54.524Z,14.07
2023-01-22T03:11:24.778Z,17.73
2023-01-22T03:14:11.816Z,16.23
2023-01-22T03:16:58.454Z,16.63
2023-01-22T03:19:44.348Z,16.53
2023-01-22T03:22:19.376Z,14.87
2023-01-22T03:24:50.428Z,16.30
2023-01-22T03:27:21.522Z,16.30
2023-01-22T03:29:50.107Z,15.53
2023-01-22T03:32:20.632Z,15.40
2023-01-22T03:34:48.642Z,15.37
2023-01-22T03:37:17.151Z,15.77
2023-01-22T03:39:48.042Z,16.03
2023-01-22T03:42:27.228Z,14.53
2023-01-22T03:44:55.874Z,16.60
2023-01-22T03:47:24.776Z,16.87
2023-01-22T03:49:52.834Z,16.20
2023-01-22T03:52:21.559Z,16.13
2023-01-22T03:54:49.507Z,16.03
2023-01-22T03:57:17.740Z,15.20
2023-01-22T03:59:47.176Z,14.97
2023-01-22T04:02:15.255Z,15.60
2023-01-22T04:05:00.304Z,15.03
2023-01-22T04:07:29.414Z,16.23
2023-01-22T04:09:57.390Z,13.87
2023-01-22T04:12:26.275Z,16.87
2023-01-22T04:14:55.721Z,16.77
2023-01-22T04:17:26.433Z,14.77
2023-01-22T04:20:12.961Z,15.17
2023-01-22T04:22:46.199Z,14.53
2023-01-22T04:25:14.564Z,15.57
2023-01-22T04:27:45.500Z,16.67
2023-01-22T04:30:19.066Z,15.10
2023-01-22T04:32:49.765Z,15.63
2023-01-22T04:35:30.185Z,16.03
2023-01-22T04:37:59.976Z,15.10
2023-01-22T04:40:28.080Z,16.17
2023-01-22T04:42:56.758Z,15.93
2023-01-22T04:45:26.373Z,16.57
2023-01-22T04:47:56.631Z,14.80
2023-01-22T04:50:26.577Z,16.80
2023-01-22T04:52:56.506Z,16.00
2023-01-22T04:55:26.094Z,16.07
2023-01-22T04:58:02.112Z,15.93
2023-01-22T05:00:32.431Z,16.33
2023-01-22T05:03:04.086Z,16.27
2023-01-22T05:05:33.543Z,15.70
2023-01-22T05:08:01.688Z,17.07
2023-01-22T05:10:30.903Z,15.57
2023-01-22T05:13:03.135Z,16.83
2023-01-22T05:15:33.078Z,14.27
2023-01-22T05:18:06.496Z,14.37
2023-01-22T05:20:37.131Z,15.47
2023-01-22T05:23:05.668Z,15.47
2023-01-22T05:25:33.891Z,14.93
2023-01-22T05:28:03.108Z,14.63
2023-01-22T05:30:52.820Z,14.37
2023-01-22T05:33:34.554Z,16.10
2023-01-22T05:36:04.443Z,14.23
2023-01-22T05:38:32.937Z,14.37
2023-01-22T05:41:01.133Z,14.77
2023-01-22T05:43:33.075Z,15.20
2023-01-22T05:46:06.827Z,14.87
2023-01-22T05:48:47.248Z,14.47
2023-01-22T05:51:19.830Z,13.87
2023-01-22T05:53:47.944Z,13.87
2023-01-22T05:56:16.881Z,15.57
2023-01-22T05:58:45.228Z,13.97
2023-01-22T06:01:14.862Z,13.63
2023-01-22T06:03:47.756Z,14.40
2023-01-22T06:06:20.157Z,14.07
2023-01-22T06:08:52.372Z,14.40
2023-01-22T06:11:21.996Z,14.20
2023-01-22T06:13:50.217Z,14.07
2023-01-22T06:16:22.023Z,13.80
2023-01-22T06:19:10.791Z,13.87
2023-01-22T06:21:46.163Z,13.50
2023-01-22T06:24:14.655Z,14.57
2023-01-22T06:26:42.776Z,14.93
2023-01-22T06:29:13.172Z,13.90
2023-01-22T06:31:43.860Z,13.67
2023-01-22T06:34:16.532Z,12.77
2023-01-22T06:36:44.687Z,13.80
2023-01-22T06:39:12.787Z,13.23
2023-01-22T06:41:45.287Z,13.00
2023-01-22T06:44:17.685Z,13.23
2023-01-22T06:46:47.450Z,12.17
2023-01-22T06:49:22.689Z,13.37
2023-01-22T06:51:50.768Z,13.80
2023-01-22T06:54:19.571Z,13.07
2023-01-22T06:56:47.925Z,13.10
2023-01-22T06:59:16.044Z,12.93
2023-01-22T07:01:44.093Z,13.00
2023-01-22T07:04:13.475Z,13.20
2023-01-22T07:06:41.440Z,12.03
2023-01-22T07:09:09.459Z,13.00
2023-01-22T07:11:37.412Z,12.80
2023-01-22T07:14:05.316Z,14.03
2023-01-22T07:16:33.368Z,14.00
2023-01-22T07:19:01.656Z,12.60
2023-01-22T07:21:31.065Z,13.77
2023-01-22T07:23:59.104Z,11.97
2023-01-22T07:26:27.039Z,13.83
2023-01-22T07:28:55.057Z,14.23
2023-01-22T07:31:23.283Z,14.07
2023-01-22T07:33:51.267Z,14.50
2023-01-22T07:36:19.209Z,13.93
2023-01-22T07:38:48.500Z,13.13
2023-01-22T07:41:25.501Z,14.87
2023-01-22T07:43:56.084Z,13.03
2023-01-22T07:46:24.273Z,15.03
2023-01-22T07:48:52.293Z,15.40
2023-01-22T07:51:20.387Z,14.53
2023-01-22T07:53:49.867Z,14.33
2023-01-22T07:56:19.163Z,15.03
2023-01-22T07:58:47.412Z,14.10
2023-01-22T08:01:15.701Z,14.07
2023-01-22T08:03:43.754Z,15.93
2023-01-22T08:06:13.184Z,13.43
2023-01-22T08:08:42.549Z,15.60
2023-01-22T08:11:11.949Z,11.63
2023-01-22T08:13:40.135Z,13.87
2023-01-22T08:16:09.399Z,13.63
2023-01-22T08:18:37.540Z,12.80
2023-01-22T08:21:05.924Z,14.33
2023-01-22T08:23:34.615Z,14.30
2023-01-22T08:26:03.934Z,13.83
2023-01-22T08:28:33.542Z,15.20
2023-01-22T08:31:03.102Z,14.80
2023-01-22T08:33:33.394Z,14.50
2023-01-22T08:36:01.406Z,15.13
2023-01-22T08:38:29.373Z,15.13
2023-01-22T08:40:57.494Z,12.17
2023-01-22T08:43:25.493Z,14.77
2023-01-22T08:45:54.941Z,14.03
2023-01-22T08:48:22.981Z,15.43
2023-01-22T08:50:51.028Z,13.57
2023-01-22T08:53:19.041Z,14.13
2023-01-22T08:55:50.208Z,14.20
2023-01-22T08:58:20.346Z,13.93
2023-01-22T09:00:48.474Z,13.50
2023-01-22T09:03:17.876Z,12.80
2023-01-22T09:05:45.866Z,13.63
2023-01-22T09:08:14.132Z,13.40
2023-01-22T09:10:42.357Z,14.00
2023-01-22T09:13:10.853Z,13.90
2023-01-22T09:15:39.337Z,12.67
2023-01-22T09:18:07.685Z,12.93
2023-01-22T09:20:37.131Z,12.17
2023-01-22T09:23:05.157Z,12.50
2023-01-22T09:25:33.151Z,12.80
2023-01-22T09:28:02.611Z,12.43
2023-01-22T09:30:31.143Z,12.30
2023-01-22T09:32:59.225Z,11.73
2023-01-22T09:35:28.330Z,11.50
2023-01-22T09:37:57.886Z,12.87
2023-01-22T09:40:29.290Z,12.53
2023-01-22T09:43:04.936Z,11.77
2023-01-22T09:45:35.264Z,12.60
2023-01-22T09:48:08.801Z,12.10
2023-01-22T09:50:37.949Z,12.10
2023-01-22T09:53:20.240Z,12.67
2023-01-22T09:56:11.660Z,12.00
2023-01-22T09:58:41.709Z,11.40
2023-01-22T10:01:09.988Z,12.47
2023-01-22T10:03:41.198Z,11.40
2023-01-22T10:06:13.809Z,12.23
2023-01-22T10:08:52.514Z,11.93
2023-01-22T10:11:20.744Z,12.07
2023-01-22T10:13:52.222Z,12.47
2023-01-22T10:16:20.309Z,12.60
2023-01-22T10:18:56.448Z,12.00
2023-01-22T10:21:27.379Z,12.27
2023-01-22T10:23:58.466Z,12.70
2023-01-22T10:26:33.944Z,12.33
2023-01-22T10:29:06.727Z,11.87
2023-01-22T10:31:37.268Z,12.33
2023-01-22T10:34:13.138Z,12.17
2023-01-22T10:36:41.613Z,11.20
2023-01-22T10:39:14.833Z,11.90
2023-01-22T10:41:43.559Z,11.73
2023-01-22T10:44:20.311Z,9.93
2023-01-22T10:46:49.712Z,11.60
2023-01-22T10:49:20.259Z,11.53
2023-01-22T10:51:55.048Z,11.33
2023-01-22T10:54:29.760Z,11.63
2023-01-22T10:57:06.805Z,9.80
2023-01-22T10:59:35.429Z,10.93
2023-01-22T11:02:12.143Z,11.07
2023-01-22T11:04:40.220Z,10.57
2023-01-22T11:07:12.915Z,11.33
2023-01-22T11:09:46.951Z,10.70
2023-01-22T11:12:21.109Z,12.10
2023-01-22T11:14:56.829Z,10.20
2023-01-22T11:17:32.337Z,10.97
2023-01-22T11:20:05.724Z,11.37
2023-01-22T11:22:39.314Z,11.67
2023-01-22T11:25:11.619Z,11.17
2023-01-22T11:28:03.572Z,10.83
2023-01-22T11:31:03.561Z,11.07
2023-01-22T11:33:51.841Z,10.87
2023-01-22T11:36:27.415Z,10.97
2023-01-22T11:39:00.958Z,11.40
2023-01-22T11:41:46.871Z,10.63
2023-01-22T11:44:41.515Z,11.73
2023-01-22T11:47:28.483Z,11.23
2023-01-22T11:50:16.660Z,12.00
2023-01-22T11:52:49.319Z,9.40
2023-01-22T11:55:44.417Z,11.20
2023-01-22T11:58:25.827Z,10.37
2023-01-22T12:01:06.519Z,11.03
2023-01-22T12:04:08.288Z,9.43
2023-01-22T12:07:06.368Z,10.43
2023-01-22T12:09:40.917Z,10.13
2023-01-22T12:12:27.427Z,9.80
2023-01-22T12:15:07.385Z,11.03
2023-01-22T12:18:03.329Z,9.83
2023-01-22T12:20:44.797Z,12.30
2023-01-22T12:23:17.613Z,11.83
2023-01-22T12:25:49.848Z,10.10
2023-01-22T12:28:22.300Z,10.60
2023-01-22T12:30:59.828Z,11.13
2023-01-22T12:33:31.025Z,11.03
2023-01-22T12:36:02.602Z,10.80
2023-01-22T12:38:43.008Z,11.60
2023-01-22T12:41:29.828Z,10.57
2023-01-22T12:44:02.259Z,11.57
2023-01-22T12:49:28.728Z,11.20
2023-01-22T12:51:59.838Z,11.97
2023-01-22T12:54:33.551Z,10.50
2023-01-22T12:57:13.609Z,10.70
2023-01-22T12:59:45.130Z,11.67
2023-01-22T13:02:39.068Z,12.27
2023-01-22T13:05:13.390Z,10.73
2023-01-22T13:07:41.953Z,11.33
2023-01-22T13:10:29.223Z,11.67
2023-01-22T13:12:59.619Z,10.57
2023-01-22T13:15:30.249Z,11.37
2023-01-22T13:18:07.683Z,12.77
2023-01-22T13:20:38.096Z,11.60
2023-01-22T13:23:07.808Z,12.77
2023-01-22T13:25:35.927Z,12.47
2023-01-22T13:28:04.613Z,12.73
2023-01-22T13:30:33.006Z,13.03
2023-01-22T13:33:07.164Z,12.57
2023-01-22T13:35:37.621Z,12.67
2023-01-22T13:38:05.686Z,13.40
2023-01-22T13:40:46.400Z,12.70
2023-01-22T13:43:20.669Z,13.73
2023-01-22T13:45:48.924Z,14.07
2023-01-22T13:48:20.472Z,14.47
2023-01-22T13:50:54.715Z,14.30
2023-01-22T13:53:32.283Z,14.13
2023-01-22T13:56:01.154Z,14.50
2023-01-22T13:58:47.952Z,13.73
2023-01-22T14:01:28.718Z,13.83
2023-01-22T14:04:02.885Z,14.00
2023-01-22T14:06:31.004Z,13.53
2023-01-22T14:08:59.454Z,13.47
2023-01-22T14:11:38.752Z,14.03
2023-01-22T14:14:16.942Z,13.77
2023-01-22T14:16:45.735Z,14.00
2023-01-22T14:19:15.979Z,14.80
2023-01-22T14:21:44.067Z,14.33
2023-01-22T14:24:12.178Z,13.90
2023-01-22T14:26:40.288Z,14.03
2023-01-22T14:29:08.778Z,14.23
2023-01-22T14:31:36.924Z,13.73
2023-01-22T14:34:05.026Z,12.83
2023-01-22T14:36:34.406Z,13.77
2023-01-22T14:39:02.436Z,14.30
2023-01-22T14:41:31.368Z,14.17
2023-01-22T14:43:59.348Z,13.37
2023-01-22T14:46:27.362Z,12.87
2023-01-22T14:48:55.292Z,12.67
2023-01-22T14:51:23.395Z,13.30
2023-01-22T14:53:52.810Z,13.70
2023-01-22T14:56:21.033Z,13.93
2023-01-22T14:58:50.115Z,15.07
2023-01-22T15:01:20.165Z,14.50
2023-01-22T15:03:48.649Z,15.02
2023-01-22T15:06:16.750Z,13.40
2023-01-22T15:08:44.934Z,13.10
2023-01-22T15:11:14.332Z,13.63
2023-01-22T15:13:42.367Z,14.00
2023-01-22T15:16:42.222Z,14.80
2023-01-22T15:19:10.376Z,14.70
2023-01-22T15:21:38.700Z,15.13
2023-01-22T15:24:07.236Z,14.13
2023-01-22T15:26:37.763Z,14.53
2023-01-22T15:29:07.335Z,14.73
2023-01-22T15:31:36.085Z,12.97
2023-01-22T15:34:04.597Z,14.67
2023-01-22T15:36:34.377Z,15.20
2023-01-22T15:39:02.335Z,14.73
2023-01-22T15:41:31.620Z,15.07
2023-01-22T15:44:02.473Z,13.17
2023-01-22T15:46:32.257Z,12.67
2023-01-22T15:49:01.393Z,14.73
2023-01-22T15:51:30.430Z,14.23
2023-01-22T15:54:00.102Z,15.23
2023-01-22T15:56:29.959Z,14.10
2023-01-22T15:59:00.028Z,14.80
2023-01-22T16:01:29.121Z,14.30
2023-01-22T16:03:57.756Z,14.10
2023-01-22T16:06:26.979Z,15.53
2023-01-22T16:08:57.455Z,15.07
2023-01-22T16:11:26.652Z,15.87
2023-01-22T16:13:54.849Z,15.90
2023-01-22T16:16:26.053Z,15.43
2023-01-22T16:18:55.052Z,15.13
2023-01-22T16:21:24.206Z,15.80
2023-01-22T16:23:54.676Z,14.80
2023-01-22T16:26:24.537Z,15.70
2023-01-22T16:28:54.369Z,14.93
2023-01-22T16:31:25.748Z,16.17
2023-01-22T16:33:56.618Z,14.83
2023-01-22T16:36:26.357Z,16.93
2023-01-22T16:38:54.649Z,15.50
2023-01-22T16:41:25.964Z,16.47
2023-01-22T16:43:56.668Z,15.13
2023-01-22T16:46:28.006Z,16.37
2023-01-22T16:48:57.938Z,15.43
2023-01-22T16:51:27.650Z,14.90
2023-01-22T16:53:56.287Z,16.73
2023-01-22T16:56:24.276Z,16.27
2023-01-22T16:58:52.264Z,16.30
2023-01-22T17:01:20.620Z,16.50
2023-01-22T17:03:50.082Z,16.23
2023-01-22T17:06:26.842Z,19.30
2023-01-22T17:08:55.675Z,17.27
2023-01-22T17:11:23.967Z,18.77
2023-01-22T17:13:51.950Z,18.13
2023-01-22T17:16:20.372Z,16.47
2023-01-22T17:18:49.654Z,17.23
2023-01-22T17:21:19.758Z,16.73
2023-01-22T17:23:47.914Z,17.57
2023-01-22T17:26:17.514Z,17.47
2023-01-22T17:28:45.966Z,15.90
2023-01-22T17:31:17.149Z,16.87
2023-01-22T17:33:46.229Z,14.90
2023-01-22T17:36:16.890Z,16.97
2023-01-22T17:38:44.911Z,15.43
2023-01-22T17:41:15.907Z,16.40
2023-01-22T17:43:45.002Z,16.53
2023-01-22T17:46:15.652Z,17.73
2023-01-22T17:48:44.452Z,16.23
2023-01-22T17:51:15.857Z,17.40
2023-01-22T17:53:45.292Z,17.20
2023-01-22T17:56:16.149Z,16.90
2023-01-22T17:58:46.675Z,16.97
2023-01-22T18:01:16.022Z,15.77
2023-01-22T18:03:44.362Z,16.93
2023-01-22T18:06:13.456Z,16.50
2023-01-22T18:08:43.261Z,16.40
2023-01-22T18:11:13.646Z,16.93
2023-01-22T18:13:42.270Z,15.30
2023-01-22T18:16:13.977Z,16.60
2023-01-22T18:18:43.092Z,16.07
2023-01-22T18:21:14.101Z,16.23
2023-01-22T18:23:43.627Z,16.70
2023-01-22T18:26:12.201Z,16.67
2023-01-22T18:28:40.551Z,14.93
2023-01-22T18:31:10.555Z,16.20
2023-01-22T18:33:39.376Z,15.63
2023-01-22T18:36:10.850Z,17.37
2023-01-22T18:38:38.888Z,16.70
2023-01-22T18:41:10.390Z,16.80
2023-01-22T18:43:39.463Z,15.03
2023-01-22T18:46:09.696Z,16.20
2023-01-22T18:48:38.075Z,15.87
2023-01-22T18:51:08.934Z,17.50
2023-01-22T18:53:37.379Z,16.00
2023-01-22T18:56:09.563Z,14.63
2023-01-22T18:58:38.504Z,16.33
2023-01-22T19:01:12.681Z,15.70
2023-01-22T19:03:42.067Z,16.57
2023-01-22T19:06:14.331Z,16.60
2023-01-22T19:08:44.020Z,15.73
2023-01-22T19:11:14.947Z,15.33
2023-01-22T19:13:45.566Z,15.47
2023-01-22T19:16:16.219Z,15.40
2023-01-22T19:18:46.529Z,16.10
2023-01-22T19:21:17.669Z,16.53
2023-01-22T19:23:47.387Z,19.20
2023-01-22T19:26:19.231Z,16.50
2023-01-22T19:28:47.574Z,16.43
2023-01-22T19:31:17.308Z,17.03
2023-01-22T19:33:45.676Z,16.33
2023-01-22T19:36:13.941Z,15.23
2023-01-22T19:38:42.027Z,16.10
2023-01-22T19:41:10.045Z,16.07
2023-01-22T19:43:39.460Z,16.47
2023-01-22T19:46:09.368Z,16.50
2023-01-22T19:48:38.384Z,16.57
2023-01-22T19:51:08.670Z,17.87
2023-01-22T19:53:37.210Z,15.93
2023-01-22T19:56:06.007Z,17.17
2023-01-22T19:58:34.080Z,16.73
2023-01-22T20:01:09.402Z,18.90
2023-01-22T20:03:37.504Z,17.70
2023-01-22T20:06:06.837Z,16.13
2023-01-22T20:08:36.295Z,17.23
2023-01-22T20:11:05.764Z,17.93
2023-01-22T20:13:34.332Z,18.57
2023-01-22T20:16:04.117Z,17.77
2023-01-22T20:18:33.017Z,16.80
2023-01-22T20:21:03.895Z,16.37
2023-01-22T20:23:31.867Z,16.67
2023-01-22T20:26:02.038Z,18.23
2023-01-22T20:28:30.076Z,17.13
2023-01-22T20:30:59.463Z,17.07
2023-01-22T20:33:29.630Z,18.03
2023-01-22T20:35:57.860Z,16.63
2023-01-22T20:38:26.120Z,17.30
2023-01-22T20:40:54.464Z,15.90
2023-01-22T20:43:22.507Z,17.87
2023-01-22T20:46:00.738Z,18.37
2023-01-22T20:48:32.236Z,17.53
2023-01-22T20:51:01.037Z,18.10
2023-01-22T20:53:29.865Z,17.23
2023-01-22T20:56:02.123Z,17.50
2023-01-22T20:58:30.716Z,18.67
2023-01-22T21:01:04.286Z,17.07
2023-01-22T21:03:33.954Z,17.87
2023-01-22T21:06:07.813Z,18.70
2023-01-22T21:08:36.129Z,18.13
2023-01-22T21:11:06.329Z,17.30
2023-01-22T21:13:34.753Z,18.33
2023-01-22T21:16:08.315Z,18.33
2023-01-22T21:18:41.368Z,18.70
2023-01-22T21:21:10.023Z,16.67
2023-01-22T21:23:38.560Z,18.43
2023-01-22T21:26:07.830Z,16.33
2023-01-22T21:28:36.652Z,18.67
2023-01-22T21:31:08.582Z,19.23
2023-01-22T21:33:38.553Z,17.93
2023-01-22T21:36:08.613Z,17.80
2023-01-22T21:38:37.408Z,18.17
2023-01-22T21:41:07.056Z,17.97
2023-01-22T21:43:53.002Z,19.23
2023-01-22T21:46:25.186Z,18.23
2023-01-22T21:48:58.191Z,17.83
2023-01-22T21:51:26.248Z,19.77
2023-01-22T21:53:55.605Z,18.80
2023-01-22T21:56:23.944Z,20.93
2023-01-22T21:58:52.258Z,19.17
2023-01-22T22:01:22.851Z,18.90
2023-01-22T22:03:50.893Z,19.43
2023-01-22T22:06:20.253Z,19.00
2023-01-22T22:08:48.255Z,19.07
2023-01-22T22:11:16.181Z,19.30
2023-01-22T22:13:44.175Z,20.67
2023-01-22T22:16:13.684Z,19.30
2023-01-22T22:18:41.963Z,19.40
2023-01-22T22:21:11.001Z,18.97
2023-01-22T22:23:40.441Z,20.13
2023-01-22T22:26:09.724Z,19.87
2023-01-22T22:28:38.007Z,21.43
2023-01-22T22:31:11.584Z,18.83
2023-01-22T22:33:40.209Z,20.73
2023-01-22T22:36:09.465Z,20.67
2023-01-22T22:38:38.049Z,18.37
2023-01-22T22:41:09.090Z,20.67
2023-01-22T22:43:38.643Z,19.83
2023-01-22T22:46:09.047Z,20.43
2023-01-22T22:48:37.232Z,18.80
2023-01-22T22:51:11.063Z,18.30
2023-01-22T22:53:39.243Z,19.70
2023-01-22T22:56:10.769Z,18.93
2023-01-22T22:58:39.295Z,19.67
2023-01-22T23:01:09.164Z,17.77
2023-01-22T23:03:38.449Z,19.70
2023-01-22T23:06:10.425Z,19.70
2023-01-22T23:08:38.971Z,20.37
2023-01-22T23:11:10.990Z,20.83
2023-01-22T23:13:39.827Z,19.70
2023-01-22T23:16:10.558Z,19.07
2023-01-22T23:18:38.920Z,19.17
2023-01-22T23:21:08.461Z,20.57
2023-01-22T23:23:37.009Z,18.67
2023-01-22T23:26:09.871Z,20.80
2023-01-22T23:28:38.593Z,18.43
2023-01-22T23:31:07.439Z,19.80
2023-01-22T23:33:35.801Z,20.43
2023-01-22T23:36:05.064Z,19.70
2023-01-22T23:38:33.091Z,20.03
2023-01-22T23:41:02.889Z,20.47
2023-01-22T23:43:32.465Z,20.67
2023-01-22T23:46:01.095Z,19.77
2023-01-22T23:48:29.236Z,21.03
2023-01-22T23:50:57.250Z,22.60
2023-01-22T23:53:25.244Z,21.10
2023-01-22T23:55:59.293Z,19.77
2023-01-22T23:58:27.457Z,19.80
